Time;durP1;ratioP1;P1;durP2;ratioP2;P2;SDS_P1;SDS_P2;PMS_P1;PMS_P2;Temp;Humidity;BMP_temperature;BMP_pressure;BME280_temperature;BME280_humidity;BME280_pressure;Samples;Min_cycle;Max_cycle;Signal;HPM_P1;HPM_P2
2022/12/28 00:01:46;;;;;;;15.25;8.82;;;;;;;4.00;75.08;101485.81;4195228;28;20067;-72
2022/12/28 00:03:50;;;;;;;12.18;7.68;;;;;;;4.01;75.25;101482.44;4189004;28;20043;-73
2022/12/28 00:05:54;;;;;;;16.85;8.15;;;;;;;4.06;75.04;101485.28;4196001;28;20598;-72
2022/12/28 00:07:57;;;;;;;12.27;7.47;;;;;;;4.10;75.17;101474.34;4207997;28;20078;-72
2022/12/28 00:10:00;;;;;;;12.68;7.53;;;;;;;4.15;75.14;101472.06;4214075;28;20443;-72
2022/12/28 00:12:03;;;;;;;14.70;7.53;;;;;;;4.19;74.86;101471.41;4214118;28;20044;-72
2022/12/28 00:14:06;;;;;;;16.42;9.60;;;;;;;4.18;75.10;101465.38;4213806;28;20036;-73
2022/12/28 00:16:13;;;;;;;15.43;8.60;;;;;;;4.19;75.21;101472.31;4195137;28;20506;-72
2022/12/28 00:18:16;;;;;;;13.20;8.25;;;;;;;4.19;75.03;101467.16;4197260;28;20478;-72
2022/12/28 00:20:18;;;;;;;11.65;7.55;;;;;;;4.24;74.83;101462.28;4197356;28;20050;-72
2022/12/28 00:22:23;;;;;;;13.82;8.80;;;;;;;4.29;74.76;101452.22;4197239;28;20044;-73
2022/12/28 00:24:26;;;;;;;14.65;8.52;;;;;;;4.27;74.89;101448.69;4195549;28;20040;-72
2022/12/28 00:26:31;;;;;;;15.10;7.93;;;;;;;4.22;74.95;101439.81;4197139;28;20184;-73
2022/12/28 00:28:34;;;;;;;15.70;8.70;;;;;;;4.18;75.10;101441.34;4178563;28;20052;-72
2022/12/28 00:30:37;;;;;;;13.55;7.97;;;;;;;4.22;74.87;101438.16;4195447;28;20050;-72
2022/12/28 00:32:40;;;;;;;14.68;8.57;;;;;;;4.22;74.98;101434.66;4193445;28;20040;-72
2022/12/28 00:34:43;;;;;;;16.30;8.43;;;;;;;4.21;75.20;101427.78;4169147;28;20041;-72
2022/12/28 00:36:45;;;;;;;14.18;8.30;;;;;;;4.27;75.18;101430.69;4193665;28;20098;-72
2022/12/28 00:39:12;;;;;;;14.73;9.40;;;;;;;4.27;75.53;101435.81;4188457;28;20111;-71
2022/12/28 00:41:14;;;;;;;11.82;7.00;;;;;;;4.24;75.57;101425.38;4194688;28;20036;-71
2022/12/28 00:43:18;;;;;;;14.65;8.35;;;;;;;4.27;75.53;101422.97;4194515;28;20686;-72
2022/12/28 00:45:20;;;;;;;13.65;8.68;;;;;;;4.28;75.77;101420.47;4193265;28;20498;-73
2022/12/28 00:47:23;;;;;;;15.23;8.63;;;;;;;4.37;75.25;101412.38;4195532;28;20094;-72
2022/12/28 00:49:26;;;;;;;14.48;8.02;;;;;;;4.27;75.43;101407.50;4196145;28;20050;-72
2022/12/28 00:51:29;;;;;;;12.23;7.47;;;;;;;4.28;75.47;101404.13;4190165;28;20040;-72
2022/12/28 00:53:32;;;;;;;18.08;9.40;;;;;;;4.27;75.67;101397.22;4192198;28;20033;-70
2022/12/28 00:55:36;;;;;;;12.70;7.88;;;;;;;4.25;75.55;101397.13;4193530;28;20040;-72
2022/12/28 00:57:40;;;;;;;16.60;8.98;;;;;;;4.26;75.66;101398.88;4195195;28;20044;-72
2022/12/28 00:59:43;;;;;;;13.07;7.40;;;;;;;4.31;75.50;101392.31;4195908;28;20087;-72
2022/12/28 01:01:46;;;;;;;14.45;8.25;;;;;;;4.32;75.62;101390.63;4194777;28;20068;-72
2022/12/28 01:03:49;;;;;;;17.42;8.32;;;;;;;4.40;75.55;101380.75;4177768;28;20037;-72
2022/12/28 01:05:53;;;;;;;16.00;8.82;;;;;;;4.46;75.21;101369.06;4194547;28;20491;-72
2022/12/28 01:07:56;;;;;;;13.95;7.45;;;;;;;4.43;75.35;101368.91;4194894;28;20114;-72
2022/12/28 01:09:59;;;;;;;14.32;8.73;;;;;;;4.43;75.41;101363.78;4194983;28;20111;-72
2022/12/28 01:12:04;;;;;;;12.57;7.20;;;;;;;4.41;75.71;101360.25;4193557;28;20048;-72
2022/12/28 01:14:06;;;;;;;16.05;7.85;;;;;;;4.46;75.67;101363.94;4195128;28;20047;-72
2022/12/28 01:16:11;;;;;;;13.82;6.53;;;;;;;4.47;75.85;101364.84;4194518;28;20074;-73
2022/12/28 01:18:15;;;;;;;14.82;7.82;;;;;;;4.51;75.67;101356.44;4178015;28;20079;-73
2022/12/28 01:20:18;;;;;;;12.47;7.63;;;;;;;4.52;75.71;101356.53;4197401;28;20032;-73
2022/12/28 01:22:23;;;;;;;;;;;;;;;4.52;75.75;101359.09;4198374;28;20303;-73
2022/12/28 01:24:26;;;;;;;13.80;9.68;;;;;;;4.53;75.56;101342.84;4197296;28;19982;-74
2022/12/28 01:26:29;;;;;;;13.13;8.48;;;;;;;4.58;75.57;101331.91;4198752;28;20044;-74
2022/12/28 01:28:34;;;;;;;14.10;7.75;;;;;;;4.59;75.46;101334.56;4197740;28;20032;-73
2022/12/28 01:30:37;;;;;;;31.45;16.00;;;;;;;4.67;75.39;101329.81;4199023;28;20063;-74
2022/12/28 01:32:41;;;;;;;28.85;15.85;;;;;;;4.65;75.31;101328.84;4196078;28;20606;-73
2022/12/28 01:34:44;;;;;;;31.88;16.52;;;;;;;4.69;75.22;101325.66;4198543;28;20063;-73
2022/12/28 01:36:47;;;;;;;158.85;71.90;;;;;;;4.59;75.35;101326.84;4196543;28;20040;-73
2022/12/28 01:38:54;;;;;;;30.27;16.35;;;;;;;4.59;75.31;101324.28;4197646;28;20047;-73
2022/12/28 01:40:56;;;;;;;18.45;10.02;;;;;;;4.59;75.43;101318.25;4197292;28;20039;-73
2022/12/28 01:42:59;;;;;;;33.92;17.17;;;;;;;4.59;75.49;101323.41;4196911;28;20471;-73
2022/12/28 01:45:17;;;;;;;20.17;10.02;;;;;;;4.63;75.41;101309.84;4179663;28;20581;-73
2022/12/28 01:47:23;;;;;;;14.25;7.80;;;;;;;4.58;75.47;101309.63;4197675;28;20029;-71
2022/12/28 01:49:29;;;;;;;10.90;7.25;;;;;;;4.59;75.47;101308.81;4198707;28;20504;-71
2022/12/28 01:51:44;;;;;;;14.38;7.93;;;;;;;4.65;75.62;101308.25;4179021;28;20041;-71
2022/12/28 01:53:50;;;;;;;16.40;8.57;;;;;;;4.65;75.46;101308.25;4198297;28;20037;-71
2022/12/28 01:55:53;;;;;;;14.13;7.90;;;;;;;4.64;75.63;101293.59;4189849;28;20036;-72
2022/12/28 01:58:00;;;;;;;15.05;8.90;;;;;;;4.72;75.43;101285.47;4189722;28;20089;-71
2022/12/28 02:00:07;;;;;;;16.27;8.98;;;;;;;4.71;75.68;101285.38;4196481;28;20036;-71
2022/12/28 02:02:21;;;;;;;;;;;;;;;4.69;75.55;101276.72;4177696;28;20065;-72
2022/12/28 02:04:25;;;;;;;13.07;7.75;;;;;;;4.69;75.71;101276.72;4197815;28;19924;-71
2022/12/28 02:06:29;;;;;;;11.30;7.20;;;;;;;4.74;75.53;101272.66;4195780;28;20470;-72
2022/12/28 02:08:40;;;;;;;12.23;7.45;;;;;;;4.77;75.61;101271.94;4179434;28;20276;-72
2022/12/28 02:10:44;;;;;;;14.77;8.02;;;;;;;4.86;75.38;101260.41;4196281;28;20120;-72
2022/12/28 02:12:50;;;;;;;10.00;6.50;;;;;;;4.82;75.62;101260.16;4195871;28;20508;-73
2022/12/28 02:14:54;;;;;;;10.90;7.53;;;;;;;4.87;75.52;101267.31;4197476;28;20048;-73
2022/12/28 02:16:57;;;;;;;16.42;6.90;;;;;;;4.89;75.41;101296.63;4196341;28;20044;-73
2022/12/28 02:19:01;;;;;;;13.32;6.88;;;;;;;4.81;75.67;101309.94;4198955;28;20437;-74
2022/12/28 02:21:21;;;;;;;15.02;7.05;;;;;;;4.87;75.37;101292.22;4196688;28;20090;-73
2022/12/28 02:23:36;;;;;;;14.23;6.80;;;;;;;4.99;75.24;101279.06;4185530;28;20120;-73
2022/12/28 02:26:14;;;;;;;12.48;7.78;;;;;;;4.92;75.24;101277.88;4196310;28;20059;-73
2022/12/28 02:28:40;;;;;;;17.52;7.38;;;;;;;4.93;75.54;101279.63;4148061;28;20052;-73
2022/12/28 02:30:50;;;;;;;12.52;7.95;;;;;;;4.89;75.33;101265.72;4196629;28;20063;-73
2022/12/28 02:33:01;;;;;;;13.48;7.35;;;;;;;5.02;74.93;101263.75;4198926;28;20040;-73
2022/12/28 02:35:08;;;;;;;10.63;7.00;;;;;;;5.00;75.03;101255.06;4197472;28;20053;-73
2022/12/28 02:37:16;;;;;;;16.42;9.68;;;;;;;4.96;75.17;101264.31;4196692;28;20071;-73
2022/12/28 02:39:24;;;;;;;10.10;6.43;;;;;;;4.98;75.49;101261.81;4178734;28;20120;-73
2022/12/28 02:41:29;;;;;;;13.27;7.50;;;;;;;5.01;75.40;101251.69;4197408;28;20107;-72
2022/12/28 02:43:33;;;;;;;15.38;7.18;;;;;;;5.00;75.43;101257.63;4197119;28;20040;-71
2022/12/28 02:50:45;;;;;;;13.05;7.25;;;;;;;4.99;75.12;101250.72;4160738;28;20076;-72
2022/12/28 02:53:03;;;;;;;12.60;6.85;;;;;;;4.96;75.35;101254.00;4139067;28;20529;-74
2022/12/28 02:58:00;;;;;;;12.65;7.68;;;;;;;4.96;75.19;101238.56;4197455;28;20036;-73
2022/12/28 03:00:06;;;;;;;11.77;7.10;;;;;;;4.99;75.25;101237.81;4193407;28;20066;-72
2022/12/28 03:02:39;;;;;;;9.80;6.28;;;;;;;5.06;75.00;101225.31;4197533;28;20415;-73
2022/12/28 03:04:57;;;;;;;10.60;7.03;;;;;;;5.04;75.21;101218.34;4194438;28;20072;-73
2022/12/28 03:09:36;;;;;;;11.73;6.93;;;;;;;5.05;75.38;101222.66;4194292;28;20042;-73
2022/12/28 03:11:43;;;;;;;13.52;6.80;;;;;;;5.07;75.37;101215.91;4195211;28;20553;-73
2022/12/28 03:13:55;;;;;;;12.75;6.80;;;;;;;5.12;75.06;101218.69;4195638;28;20032;-72
2022/12/28 03:16:04;;;;;;;12.75;7.68;;;;;;;5.05;75.50;101209.78;4207113;28;20040;-73
2022/12/28 03:32:31;;;;;;;10.30;6.53;;;;;;;5.21;75.12;101204.56;4196859;28;20036;-73
2022/12/28 03:34:36;;;;;;;8.70;5.40;;;;;;;5.27;74.87;101203.09;4196491;28;20041;-72
2022/12/28 03:36:47;;;;;;;12.43;5.95;;;;;;;5.29;74.78;101202.34;4196712;28;20068;-72
2022/12/28 03:38:58;;;;;;;13.32;6.28;;;;;;;5.24;74.76;101198.66;4195701;28;20044;-73
2022/12/28 03:41:07;;;;;;;8.68;5.25;;;;;;;5.28;74.64;101191.97;4196429;28;20044;-72
2022/12/28 03:45:47;;;;;;;8.50;5.95;;;;;;;5.32;74.46;101193.88;4196597;28;20410;-73
2022/12/28 03:47:54;;;;;;;11.13;7.43;;;;;;;5.30;74.54;101177.44;4190680;28;20036;-73
2022/12/28 03:50:00;;;;;;;14.63;5.70;;;;;;;5.29;74.99;101181.72;4196531;28;20044;-73
2022/12/28 03:52:03;;;;;;;;;;;;;;;5.29;75.02;101178.28;4196849;28;20516;-73
2022/12/28 03:54:06;;;;;;;11.60;6.00;;;;;;;5.47;74.54;101175.66;4191932;28;19947;-73
2022/12/28 03:56:11;;;;;;;10.93;5.13;;;;;;;5.45;74.26;101157.53;4196246;28;20122;-73
2022/12/28 03:58:15;;;;;;;9.60;5.45;;;;;;;5.40;74.60;101148.69;4196395;28;20482;-73
2022/12/28 04:00:18;;;;;;;13.88;5.85;;;;;;;5.42;74.88;101142.81;4195316;28;20068;-73
2022/12/28 04:02:25;;;;;;;9.20;6.05;;;;;;;5.47;74.70;101140.44;4208761;28;20040;-75
2022/12/28 04:04:28;;;;;;;9.85;4.82;;;;;;;5.47;74.80;101139.56;4194815;28;20143;-73
2022/12/28 04:06:32;;;;;;;10.90;4.82;;;;;;;5.53;74.61;101135.56;4195522;28;20498;-73
2022/12/28 04:08:35;;;;;;;8.55;4.85;;;;;;;5.54;74.12;101137.31;4191793;28;20036;-73
2022/12/28 04:10:40;;;;;;;9.70;4.20;;;;;;;5.51;74.42;101134.59;4195284;28;20021;-71
2022/12/28 04:12:44;;;;;;;6.97;4.60;;;;;;;5.50;74.60;101135.41;4192862;28;20059;-73
2022/12/28 04:15:22;;;;;;;8.45;4.90;;;;;;;5.52;74.77;101127.75;4195537;28;20032;-73
2022/12/28 04:17:25;;;;;;;9.90;5.20;;;;;;;5.53;74.14;101122.66;4195361;28;20131;-73
2022/12/28 04:19:28;;;;;;;8.48;4.70;;;;;;;5.51;74.24;101128.56;4195181;28;20540;-73
2022/12/28 04:21:32;;;;;;;9.35;4.68;;;;;;;5.57;74.14;101126.28;4195124;28;20025;-74
2022/12/28 04:23:36;;;;;;;6.72;4.38;;;;;;;5.53;74.11;101126.94;4193964;28;20044;-72
2022/12/28 04:25:59;;;;;;;7.13;4.55;;;;;;;5.56;74.17;101125.41;4195085;28;20036;-73
2022/12/28 04:28:02;;;;;;;;;;;;;;;5.48;74.44;101126.75;4194886;28;20109;-73
2022/12/28 04:30:40;;;;;;;7.68;4.68;;;;;;;5.52;74.41;101128.66;4202244;28;19924;-73
2022/12/28 04:32:43;;;;;;;7.78;4.53;;;;;;;5.53;74.62;101117.50;4195600;28;20106;-73
2022/12/28 04:34:46;;;;;;;6.28;3.92;;;;;;;5.58;73.92;101122.88;4178924;28;20073;-72
2022/12/28 04:36:54;;;;;;;6.20;4.00;;;;;;;5.58;74.41;101117.72;4192331;28;20123;-73
2022/12/28 04:38:58;;;;;;;8.52;5.00;;;;;;;5.68;73.87;101119.00;4178961;28;20045;-72
2022/12/28 04:41:01;;;;;;;7.80;4.32;;;;;;;5.67;73.80;101117.25;4197096;28;20033;-74
2022/12/28 04:43:04;;;;;;;7.80;4.05;;;;;;;5.68;74.01;101116.44;4195908;28;20457;-72
2022/12/28 04:45:08;;;;;;;6.68;3.90;;;;;;;5.71;73.96;101120.03;4196512;28;20049;-72
2022/12/28 04:47:12;;;;;;;5.78;3.67;;;;;;;5.64;73.71;101111.97;4187765;28;20049;-73
2022/12/28 04:49:15;;;;;;;7.97;3.55;;;;;;;5.64;73.55;101109.38;4195188;28;20298;-75
2022/12/28 04:51:21;;;;;;;8.30;3.83;;;;;;;5.70;73.43;101117.41;4195626;28;20082;-74
2022/12/28 04:53:25;;;;;;;6.82;3.30;;;;;;;5.86;73.04;101114.66;4194720;28;20039;-74
2022/12/28 04:55:28;;;;;;;5.88;3.35;;;;;;;5.85;73.09;101112.03;4198622;28;20131;-73
2022/12/28 04:57:35;;;;;;;7.80;3.53;;;;;;;5.78;73.27;101121.19;4198017;28;20088;-74
2022/12/28 04:59:39;;;;;;;7.43;3.90;;;;;;;5.76;73.16;101109.91;4194078;28;20475;-74
2022/12/28 05:01:42;;;;;;;8.23;3.90;;;;;;;5.70;73.47;101118.25;4197013;28;20050;-74
2022/12/28 05:03:46;;;;;;;7.55;3.70;;;;;;;5.78;73.47;101123.75;4208017;28;20040;-73
2022/12/28 05:06:00;;;;;;;8.48;3.78;;;;;;;5.75;73.49;101121.03;4198876;28;20076;-73
2022/12/28 05:08:03;;;;;;;7.28;3.75;;;;;;;5.84;73.37;101124.06;4198905;28;20047;-74
2022/12/28 05:10:08;;;;;;;5.55;3.10;;;;;;;5.88;72.71;101128.50;4197363;28;20040;-74
2022/12/28 05:12:11;;;;;;;6.97;3.88;;;;;;;5.90;73.21;101116.56;4198132;28;20442;-74
2022/12/28 05:14:14;;;;;;;6.53;3.78;;;;;;;5.80;73.31;101114.41;4198108;28;20032;-73
2022/12/28 05:16:17;;;;;;;6.55;4.05;;;;;;;5.87;73.50;101116.44;4199718;28;20067;-74
2022/12/28 05:18:20;;;;;;;6.47;3.50;;;;;;;5.87;73.24;101112.97;4193149;28;20070;-74
2022/12/28 05:20:24;;;;;;;5.75;3.33;;;;;;;5.92;73.00;101109.75;4199571;28;20036;-74
2022/12/28 05:22:27;;;;;;;7.13;3.95;;;;;;;5.94;72.94;101108.16;4198343;28;20032;-75
2022/12/28 05:24:30;;;;;;;7.07;3.67;;;;;;;5.97;72.71;101096.19;4198402;28;20086;-73
2022/12/28 05:26:34;;;;;;;7.03;3.72;;;;;;;5.89;72.99;101101.03;4198798;28;20035;-74
2022/12/28 05:28:37;;;;;;;6.97;3.45;;;;;;;5.84;73.40;101085.34;4180251;28;20048;-75
2022/12/28 05:30:40;;;;;;;10.57;3.63;;;;;;;5.99;72.95;101086.88;4195461;28;20086;-75
2022/12/28 05:32:43;;;;;;;7.60;3.63;;;;;;;5.92;73.04;101088.25;4196668;28;20379;-75
2022/12/28 05:34:45;;;;;;;6.47;3.42;;;;;;;5.90;73.39;101080.44;4195020;28;20404;-74
2022/12/28 05:36:48;;;;;;;5.30;3.30;;;;;;;5.93;73.23;101074.53;4192431;28;20074;-73
2022/12/28 05:38:52;;;;;;;7.95;3.60;;;;;;;5.90;72.85;101079.56;4197289;28;20533;-74
2022/12/28 05:40:55;;;;;;;6.93;4.50;;;;;;;5.93;73.03;101079.69;4196487;28;20102;-73
2022/12/28 05:43:00;;;;;;;8.30;3.75;;;;;;;5.88;73.33;101074.31;4179154;28;20056;-74
2022/12/28 05:45:03;;;;;;;5.65;3.20;;;;;;;5.89;73.29;101068.34;4198286;28;20071;-73
2022/12/28 05:47:06;;;;;;;9.18;4.05;;;;;;;5.92;72.62;101076.22;4196969;28;20037;-74
2022/12/28 05:49:09;;;;;;;5.45;3.17;;;;;;;5.90;73.05;101069.25;4197464;28;20736;-74
2022/12/28 05:51:14;;;;;;;8.50;3.60;;;;;;;5.88;73.01;101073.44;4178849;28;20540;-72
2022/12/28 05:53:17;;;;;;;6.32;3.28;;;;;;;5.88;72.75;101068.28;4197026;28;20032;-73
2022/12/28 05:55:20;;;;;;;7.10;3.70;;;;;;;5.86;73.27;101068.22;4197979;28;20383;-73
2022/12/28 05:57:22;;;;;;;8.02;3.65;;;;;;;5.85;73.27;101066.44;4198516;28;20036;-72
2022/12/28 05:59:27;;;;;;;6.32;3.20;;;;;;;5.94;72.98;101058.22;4199154;28;20086;-72
2022/12/28 06:01:31;;;;;;;5.05;3.03;;;;;;;5.85;73.19;101066.44;4195557;28;20123;-73
2022/12/28 06:03:35;;;;;;;8.98;4.00;;;;;;;5.98;72.89;101067.03;4195889;28;20085;-72
2022/12/28 06:05:38;;;;;;;8.20;3.60;;;;;;;5.87;72.95;101061.34;4197401;28;20433;-73
2022/12/28 06:07:41;;;;;;;8.02;3.70;;;;;;;5.86;73.03;101068.22;4197605;28;20548;-73
2022/12/28 06:09:44;;;;;;;7.70;3.60;;;;;;;5.87;72.99;101059.66;4198446;28;20556;-73
2022/12/28 06:11:47;;;;;;;5.15;2.70;;;;;;;5.84;72.67;101056.06;4198933;28;20028;-73
2022/12/28 06:13:51;;;;;;;7.05;3.13;;;;;;;5.82;73.33;101065.44;4194231;28;20113;-73
2022/12/28 06:15:55;;;;;;;6.55;3.25;;;;;;;5.93;72.81;101065.09;4191557;28;20064;-72
2022/12/28 06:17:58;;;;;;;7.10;3.65;;;;;;;5.84;72.74;101062.13;4195088;28;20045;-72
2022/12/28 06:20:01;;;;;;;11.52;3.67;;;;;;;5.81;73.33;101059.41;4198576;28;20406;-73
2022/12/28 06:22:04;;;;;;;9.15;3.55;;;;;;;5.83;73.27;101057.78;4198920;28;20060;-75
2022/12/28 06:24:08;;;;;;;7.38;3.30;;;;;;;5.87;73.06;101057.09;4193269;28;20423;-73
2022/12/28 06:26:13;;;;;;;5.70;3.00;;;;;;;5.93;72.58;101057.34;4197403;28;20494;-74
2022/12/28 06:28:16;;;;;;;7.40;3.90;;;;;;;5.90;72.38;101058.94;4196138;28;20345;-72
2022/12/28 06:30:19;;;;;;;6.53;3.22;;;;;;;5.86;73.15;101046.72;4197542;28;20082;-73
2022/12/28 06:32:23;;;;;;;5.28;2.70;;;;;;;5.87;73.05;101048.44;4198959;28;20123;-73
2022/12/28 06:34:27;;;;;;;5.68;2.63;;;;;;;5.88;73.00;101048.50;4189577;28;20507;-73
2022/12/28 06:36:32;;;;;;;5.15;2.63;;;;;;;5.88;72.76;101034.75;4194611;28;20242;-72
2022/12/28 06:38:35;;;;;;;10.23;3.20;;;;;;;5.92;72.60;101036.63;4195519;28;20033;-73
2022/12/28 06:40:38;;;;;;;5.72;2.72;;;;;;;5.99;72.12;101040.41;4204155;28;20040;-75
2022/12/28 06:43:00;;;;;;;6.00;3.33;;;;;;;5.89;72.61;101042.53;4206016;28;20040;-74
2022/12/28 06:45:04;;;;;;;5.95;3.08;;;;;;;5.84;72.94;101033.75;4196266;28;20036;-74
2022/12/28 06:47:07;;;;;;;6.18;3.20;;;;;;;5.85;72.59;101037.19;4197994;28;20551;-74
2022/12/28 06:49:11;;;;;;;5.90;3.17;;;;;;;5.92;72.53;101034.06;4195250;28;20047;-74
2022/12/28 06:51:16;;;;;;;11.20;3.17;;;;;;;5.87;72.61;101041.63;4196438;28;20040;-74
2022/12/28 06:53:19;;;;;;;9.82;3.53;;;;;;;5.95;72.66;101031.59;4197267;28;20044;-74
2022/12/28 06:55:22;;;;;;;6.50;2.78;;;;;;;5.91;72.74;101025.44;4198366;28;20123;-74
2022/12/28 06:57:25;;;;;;;6.43;3.03;;;;;;;5.85;72.50;101025.16;4196456;28;20086;-72
2022/12/28 06:59:28;;;;;;;5.88;2.83;;;;;;;5.87;72.96;101022.66;4194205;28;20410;-73
2022/12/28 07:01:32;;;;;;;5.32;2.72;;;;;;;5.87;73.05;101020.97;4197519;28;20545;-72
2022/12/28 07:03:36;;;;;;;6.30;2.67;;;;;;;5.83;73.39;101025.94;4196276;28;20032;-73
2022/12/28 07:05:40;;;;;;;4.20;2.42;;;;;;;5.78;73.20;101025.72;4197405;28;20041;-74
2022/12/28 07:07:45;;;;;;;6.57;2.55;;;;;;;5.79;73.06;101019.75;4198370;28;20067;-72
2022/12/28 07:09:48;;;;;;;5.38;2.97;;;;;;;5.77;73.07;101029.13;4193322;28;20036;-74
2022/12/28 07:11:50;;;;;;;5.65;2.78;;;;;;;5.75;73.32;101023.00;4191729;28;20043;-73
2022/12/28 07:13:54;;;;;;;4.05;2.38;;;;;;;5.79;73.08;101031.78;4190222;28;20054;-73
2022/12/28 07:16:02;;;;;;;3.65;2.03;;;;;;;5.79;73.04;101035.22;4193332;28;20395;-73
2022/12/28 07:18:05;;;;;;;5.13;2.55;;;;;;;5.78;72.98;101036.03;4180067;28;20476;-73
2022/12/28 07:20:10;;;;;;;5.38;2.58;;;;;;;5.85;72.46;101039.78;4195093;28;20098;-73
2022/12/28 07:22:14;;;;;;;5.70;2.42;;;;;;;5.88;72.80;101035.59;4196847;28;20494;-73
2022/12/28 07:24:17;;;;;;;7.38;2.60;;;;;;;5.84;72.99;101033.75;4196399;28;20043;-74
2022/12/28 07:26:22;;;;;;;6.18;2.78;;;;;;;5.85;72.74;101030.31;4198083;28;20040;-73
2022/12/28 07:28:25;;;;;;;5.95;2.47;;;;;;;5.82;72.72;101019.88;4197707;28;20033;-73
2022/12/28 07:30:28;;;;;;;5.22;2.65;;;;;;;5.89;72.93;101019.31;4195308;28;20513;-73
2022/12/28 07:32:31;;;;;;;5.25;2.40;;;;;;;5.91;73.14;101019.38;4197721;28;20078;-73
2022/12/28 07:34:34;;;;;;;4.30;2.15;;;;;;;6.01;72.73;101011.25;4195703;28;20041;-73
2022/12/28 07:36:37;;;;;;;6.80;2.53;;;;;;;5.98;72.93;101010.25;4195982;28;20036;-73
2022/12/28 07:38:42;;;;;;;4.72;2.28;;;;;;;6.09;74.97;101011.59;4194617;28;20086;-60
2022/12/28 07:40:45;;;;;;;5.60;2.58;;;;;;;6.41;75.63;101010.28;4196339;28;20060;-72
2022/12/28 07:42:47;;;;;;;3.92;2.38;;;;;;;6.46;74.30;101011.34;4196284;28;20044;-80
2022/12/28 07:44:51;;;;;;;5.03;2.60;;;;;;;6.38;72.78;101017.03;4195513;28;20048;-80
2022/12/28 07:46:54;;;;;;;6.68;2.90;;;;;;;6.34;72.62;101016.03;4188662;28;20383;-80
2022/12/28 07:48:57;;;;;;;3.63;2.20;;;;;;;6.34;72.46;101016.03;4203213;28;20044;-79
2022/12/28 07:51:06;;;;;;;4.03;2.20;;;;;;;6.24;72.44;101013.91;4197754;28;20074;-80
2022/12/28 07:53:09;;;;;;;3.55;2.00;;;;;;;6.29;72.14;101012.38;4192444;28;20078;-78
2022/12/28 07:55:13;;;;;;;5.38;2.05;;;;;;;6.24;72.12;101008.75;4195324;28;20051;-79
2022/12/28 07:57:16;;;;;;;4.53;2.17;;;;;;;6.19;71.94;101013.72;4197523;28;20086;-79
2022/12/28 07:59:19;;;;;;;6.35;2.70;;;;;;;6.18;72.45;101009.38;4192686;28;20376;-78
2022/12/28 08:01:24;;;;;;;5.82;2.05;;;;;;;6.18;72.69;100999.03;4196978;28;20071;-79
2022/12/28 08:03:27;;;;;;;5.18;2.40;;;;;;;6.19;72.74;101002.50;4194346;28;20475;-78
2022/12/28 08:05:30;;;;;;;4.28;1.98;;;;;;;6.18;72.76;101003.34;4197151;28;20050;-78
2022/12/28 08:07:32;;;;;;;5.65;1.98;;;;;;;6.21;72.46;100994.00;4196352;28;20498;-78
2022/12/28 08:09:35;;;;;;;6.78;2.33;;;;;;;6.26;72.46;100986.44;4195335;28;20044;-78
2022/12/28 08:11:42;;;;;;;5.22;2.45;;;;;;;6.24;72.12;100982.91;4197213;28;20040;-78
2022/12/28 08:13:47;;;;;;;6.65;2.00;;;;;;;6.24;72.76;100976.03;4195701;28;20072;-78
2022/12/28 08:15:53;;;;;;;5.53;1.85;;;;;;;6.28;72.69;100977.94;4182638;28;20048;-77
2022/12/28 08:17:57;;;;;;;4.55;1.80;;;;;;;6.26;72.26;100971.84;4206376;28;20048;-78
2022/12/28 08:20:00;;;;;;;5.78;2.30;;;;;;;6.29;72.07;100981.38;4197672;28;20040;-77
2022/12/28 08:22:03;;;;;;;4.70;2.00;;;;;;;6.24;71.98;100977.75;4200302;28;20040;-78
2022/12/28 08:24:07;;;;;;;6.45;2.00;;;;;;;6.25;72.24;100975.22;4175702;28;20045;-78
2022/12/28 08:26:13;;;;;;;4.43;2.17;;;;;;;6.22;72.59;100977.69;4195283;28;20068;-77
2022/12/28 08:28:17;;;;;;;5.20;2.30;;;;;;;6.24;72.64;100970.88;4197609;28;20060;-77
2022/12/28 08:30:20;;;;;;;5.38;2.40;;;;;;;6.21;72.69;100970.75;4200506;28;20343;-78
2022/12/28 08:32:22;;;;;;;2.85;1.88;;;;;;;6.24;72.62;100973.47;4195158;28;20040;-78
2022/12/28 08:34:26;;;;;;;4.15;1.70;;;;;;;6.32;72.85;100980.63;4192488;28;20036;-78
2022/12/28 08:36:29;;;;;;;5.03;2.05;;;;;;;6.35;72.63;100973.00;4198055;28;20036;-79
2022/12/28 08:38:32;;;;;;;6.30;2.38;;;;;;;6.44;72.39;100974.25;4195758;28;20623;-78
2022/12/28 08:40:35;;;;;;;4.97;2.40;;;;;;;6.44;72.47;100970.81;4196919;28;20540;-78
2022/12/28 08:42:38;;;;;;;3.30;2.15;;;;;;;6.44;72.18;100963.94;4195608;28;20071;-79
2022/12/28 08:44:42;;;;;;;4.82;2.00;;;;;;;6.47;72.71;100960.59;4195837;28;20033;-79
2022/12/28 08:46:45;;;;;;;4.15;2.10;;;;;;;6.59;71.86;100965.34;4196356;28;20094;-79
2022/12/28 08:48:49;;;;;;;6.47;2.42;;;;;;;6.56;71.75;100960.94;4203265;28;20288;-79
2022/12/28 08:50:52;;;;;;;4.07;2.03;;;;;;;6.56;71.35;100958.34;4189889;28;20544;-80
2022/12/28 08:52:55;;;;;;;8.65;2.03;;;;;;;6.57;71.56;100960.13;4195947;28;20593;-79
2022/12/28 08:54:58;;;;;;;3.60;2.00;;;;;;;6.66;71.10;100956.09;4183961;28;20040;-78
2022/12/28 08:57:01;;;;;;;4.63;2.30;;;;;;;6.64;71.15;100961.22;4198706;28;20048;-78
2022/12/28 08:59:05;;;;;;;3.08;1.52;;;;;;;6.51;71.21;100957.28;4201357;28;20044;-78
2022/12/28 09:01:12;;;;;;;4.80;1.70;;;;;;;6.51;71.95;100956.41;4201996;28;20559;-78
2022/12/28 09:03:15;;;;;;;5.25;2.22;;;;;;;6.47;71.52;100966.63;4199213;28;20367;-78
2022/12/28 09:05:18;;;;;;;6.13;2.30;;;;;;;6.54;71.56;100952.25;4199659;28;20136;-78
2022/12/28 09:07:20;;;;;;;4.85;2.38;;;;;;;6.51;71.21;100959.88;4207104;28;20040;-78
2022/12/28 09:09:23;;;;;;;4.50;1.65;;;;;;;6.55;71.37;100961.75;4196705;28;20513;-78
2022/12/28 09:11:26;;;;;;;6.88;1.70;;;;;;;6.73;70.74;100947.78;4199687;28;20041;-78
2022/12/28 09:13:30;;;;;;;3.50;1.60;;;;;;;6.66;70.72;100958.69;4189461;28;20036;-78
2022/12/28 09:15:33;;;;;;;3.97;1.67;;;;;;;6.66;71.34;100953.53;4202716;28;20116;-79
2022/12/28 09:17:37;;;;;;;3.92;1.63;;;;;;;6.74;70.94;100957.28;4187378;28;20047;-70
2022/12/28 09:19:40;;;;;;;5.85;2.30;;;;;;;6.78;71.33;100952.28;4194133;28;20123;-77
2022/12/28 09:21:44;;;;;;;5.28;2.10;;;;;;;6.74;71.31;100963.34;4198762;28;20040;-76
2022/12/28 09:23:47;;;;;;;4.18;2.33;;;;;;;6.81;71.22;100949.81;4202108;28;20094;-76
2022/12/28 09:25:50;;;;;;;3.92;1.60;;;;;;;6.77;70.81;100954.81;4195328;28;20522;-76
2022/12/28 09:27:53;;;;;;;4.00;1.63;;;;;;;6.78;71.14;100960.03;4200482;28;20044;-76
2022/12/28 09:30:02;;;;;;;4.15;1.77;;;;;;;6.92;70.45;100954.50;4212972;28;20078;-76
2022/12/28 09:32:05;;;;;;;4.85;1.83;;;;;;;6.94;70.53;100964.09;4188652;28;20570;-76
2022/12/28 09:34:12;;;;;;;3.33;1.55;;;;;;;6.91;70.83;100958.81;4191444;28;20289;-76
2022/12/28 09:36:37;;;;;;;5.45;1.80;;;;;;;6.99;70.38;100957.41;4198256;28;20124;-77
2022/12/28 09:38:39;;;;;;;4.03;1.95;;;;;;;6.97;70.47;100958.16;4188452;28;20041;-76
2022/12/28 09:40:43;;;;;;;3.90;1.42;;;;;;;6.98;70.88;100952.16;4199715;28;20076;-76
2022/12/28 09:42:46;;;;;;;3.30;2.15;;;;;;;7.12;70.17;100942.31;4197908;28;20060;-76
2022/12/28 09:44:55;;;;;;;3.13;1.67;;;;;;;7.12;69.85;100952.66;4194168;28;20039;-76
2022/12/28 09:47:02;;;;;;;8.68;2.33;;;;;;;7.17;69.79;100943.38;4191928;28;20134;-77
2022/12/28 09:49:10;;;;;;;1.73;1.25;;;;;;;7.15;69.64;100947.59;4197799;28;20044;-76
2022/12/28 09:51:15;;;;;;;4.38;1.67;;;;;;;7.22;69.57;100943.53;4203734;28;20123;-76
2022/12/28 09:53:30;;;;;;;3.63;1.58;;;;;;;7.21;69.48;100947.81;4200594;28;20040;-76
2022/12/28 09:55:35;;;;;;;3.20;1.60;;;;;;;7.17;69.63;100945.97;4193603;28;20040;-76
2022/12/28 09:57:42;;;;;;;4.35;1.33;;;;;;;7.27;69.79;100939.38;4204379;28;20535;-76
2022/12/28 09:59:46;;;;;;;3.85;1.35;;;;;;;7.34;69.50;100950.03;4193873;28;20097;-76
2022/12/28 10:01:55;;;;;;;3.72;1.40;;;;;;;7.37;69.98;100944.06;4197566;28;20106;-76
2022/12/28 10:04:02;;;;;;;2.50;1.55;;;;;;;7.45;69.68;100942.63;4198460;28;20425;-77
2022/12/28 10:06:11;;;;;;;3.42;1.30;;;;;;;7.53;69.13;100940.31;4194464;28;20036;-76
2022/12/28 10:08:18;;;;;;;4.95;1.70;;;;;;;7.54;68.56;100939.47;4199566;28;20398;-76
2022/12/28 10:10:23;;;;;;;6.40;1.80;;;;;;;7.47;68.91;100938.38;4196243;28;20509;-76
2022/12/28 10:12:26;;;;;;;5.72;1.90;;;;;;;7.54;68.91;100936.91;4197999;28;20447;-76
2022/12/28 10:14:32;;;;;;;4.22;1.70;;;;;;;7.50;68.56;100935.94;4200846;28;20042;-77
2022/12/28 10:16:35;;;;;;;4.05;1.85;;;;;;;7.48;69.43;100923.75;4193741;28;20067;-76